Terminal Aerodrome Forecast
Issued by NWS

Home | Current Version | Previous Version | Text Only | Print | Product List | Glossary On
Versions: 1 2 3 4 5 6 7 8 9 10 11 12 13 14
000
FTUS45 KRIW 271121
TAFRKS
TAF
KRKS 271121Z 2712/2812 25007KT P6SM BKN070
     FM271600 20007KT P6SM VCSH SCT040 BKN060
     FM272000 19008KT P6SM -RA SCT025 BKN040
     FM272200 16008KT 5SM -RA BR SCT020 BKN030
     FM280400 33010KT 4SM -SN BR SCT015 BKN025
     FM280900 33015G25KT 6SM -SN SCT010 BKN020=

USA.gov is the U.S. government's official web portal to all federal, state and local government web resources and services.